Time;durP1;ratioP1;P1;durP2;ratioP2;P2;SDS_P1;SDS_P2;PMS_P1;PMS_P2;Temp;Humidity;BMP_temperature;BMP_pressure;BME280_temperature;BME280_humidity;BME280_pressure;Samples;Min_cycle;Max_cycle;Signal;HPM_P1;HPM_P2
2023/01/17 00:01:54;;;;;;;2.20;0.88;;;;;;;-1.42;100.00;91249.16;5051693;28;20078;-60
2023/01/17 00:09:57;;;;;;;2.08;0.80;;;;;;;-1.53;100.00;91248.53;5050793;28;20484;-60
2023/01/17 00:12:26;;;;;;;2.50;1.10;;;;;;;-1.57;100.00;91243.22;5051347;28;20064;-60
2023/01/17 00:14:54;;;;;;;2.45;1.00;;;;;;;-1.60;100.00;91254.78;5051870;28;20083;-60
2023/01/17 00:17:23;;;;;;;2.35;1.20;;;;;;;-1.65;100.00;91253.31;5050740;28;20527;-60
2023/01/17 01:35:36;;;;;;;3.58;0.95;;;;;;;-1.42;100.00;91322.53;5049866;28;20687;-60
2023/01/17 01:38:03;;;;;;;3.13;1.08;;;;;;;-1.35;100.00;91320.94;5050052;28;20048;-60
2023/01/17 01:40:29;;;;;;;2.97;0.90;;;;;;;-1.29;100.00;91322.78;5050071;28;20494;-60
2023/01/17 01:42:58;;;;;;;2.47;1.10;;;;;;;-1.26;100.00;91331.97;5050512;28;20406;-61
2023/01/17 01:45:31;;;;;;;3.90;1.35;;;;;;;-1.24;100.00;91327.69;5049780;28;20045;-60
2023/01/17 01:48:19;;;;;;;2.55;1.23;;;;;;;-1.32;100.00;91318.19;5050559;28;20056;-60
2023/01/17 01:50:49;;;;;;;2.30;1.20;;;;;;;-1.31;100.00;91327.81;5049284;28;20735;-60
2023/01/17 01:53:19;;;;;;;2.17;0.83;;;;;;;-1.39;100.00;91320.97;5049479;28;20059;-58
2023/01/17 01:55:48;;;;;;;2.50;1.17;;;;;;;-1.38;100.00;91319.06;5050071;28;20041;-60
2023/01/17 01:58:22;;;;;;;3.65;1.50;;;;;;;-1.38;100.00;91316.38;5050231;28;20429;-60
2023/01/17 02:00:50;;;;;;;2.80;1.00;;;;;;;-1.33;100.00;91307.84;5049067;28;20741;-60
2023/01/17 02:03:23;;;;;;;2.75;1.08;;;;;;;-1.27;100.00;91301.63;5049372;28;20063;-60
2023/01/17 02:05:50;;;;;;;2.20;0.83;;;;;;;-1.36;100.00;91311.34;5050265;28;20390;-60
2023/01/17 02:08:20;;;;;;;2.50;1.10;;;;;;;-1.29;100.00;91303.16;5049746;28;20048;-59
2023/01/17 02:10:47;;;;;;;3.55;1.52;;;;;;;-1.33;100.00;91308.59;5050396;28;20073;-61
2023/01/17 02:13:17;;;;;;;2.72;1.00;;;;;;;-1.20;100.00;91300.75;5050408;28;20037;-61
2023/01/17 02:16:21;;;;;;;3.13;1.42;;;;;;;-1.25;100.00;91299.28;5049064;28;20780;-60
2023/01/17 02:18:58;;;;;;;2.90;1.30;;;;;;;-1.30;100.00;91293.59;5049018;28;20826;-60
2023/01/17 02:21:38;;;;;;;3.47;1.30;;;;;;;-1.36;100.00;91292.50;5049420;28;20041;-60
2023/01/17 02:24:49;;;;;;;3.53;1.20;;;;;;;-1.49;100.00;91303.03;5049782;28;20055;-60
2023/01/17 02:27:47;;;;;;;3.42;1.30;;;;;;;-1.52;100.00;91307.31;4967060;28;21604;-59
2023/01/17 02:30:25;;;;;;;3.90;1.77;;;;;;;-1.42;100.00;91314.47;4951804;28;20567;-60
2023/01/17 02:33:02;;;;;;;3.83;1.30;;;;;;;-1.41;100.00;91310.63;5034786;28;21525;-60
2023/01/17 02:35:48;;;;;;;4.75;1.67;;;;;;;-1.46;100.00;91307.63;5053485;28;20391;-60
2023/01/17 02:38:35;;;;;;;3.30;1.70;;;;;;;-1.39;100.00;91306.75;5053833;28;20053;-61
2023/01/17 02:41:14;;;;;;;4.50;2.15;;;;;;;-1.41;100.00;91313.31;5052984;28;20389;-60
2023/01/17 02:43:41;;;;;;;4.40;2.40;;;;;;;-1.37;100.00;91304.44;5053023;28;20079;-60
2023/01/17 02:46:07;;;;;;;3.30;1.50;;;;;;;-1.38;100.00;91311.75;5053393;28;20116;-60
2023/01/17 02:48:37;;;;;;;4.00;1.70;;;;;;;-1.41;100.00;91305.25;5052545;28;20068;-60
2023/01/17 02:51:24;;;;;;;4.35;1.80;;;;;;;-1.48;100.00;91305.31;5053768;28;20401;-60
2023/01/17 02:54:17;;;;;;;5.97;1.80;;;;;;;-1.44;100.00;91308.72;5052639;28;20096;-60
2023/01/17 02:57:05;;;;;;;3.97;1.77;;;;;;;-1.32;100.00;91301.28;5052728;28;20786;-60
2023/01/17 02:59:39;;;;;;;3.70;1.70;;;;;;;-1.39;100.00;91306.75;5042049;28;20044;-60
2023/01/17 03:02:29;;;;;;;3.40;1.70;;;;;;;-1.46;100.00;91297.63;5053233;28;20099;-60
2023/01/17 03:05:06;;;;;;;3.42;1.88;;;;;;;-1.42;100.00;91294.88;5052673;28;20387;-60
2023/01/17 03:07:33;;;;;;;3.63;1.65;;;;;;;-1.44;100.00;91303.34;5053066;28;20045;-60
2023/01/17 03:10:03;;;;;;;5.07;1.83;;;;;;;-1.42;100.00;91292.19;5053040;28;20478;-60
2023/01/17 03:12:34;;;;;;;3.37;1.47;;;;;;;-1.55;100.00;91285.81;5053024;28;20049;-60
2023/01/17 03:15:01;;;;;;;2.88;1.40;;;;;;;-1.51;100.00;91284.63;5053182;28;20678;-61
2023/01/17 03:17:31;;;;;;;3.15;1.73;;;;;;;-1.47;100.00;91282.66;5052460;28;20047;-60
2023/01/17 03:19:58;;;;;;;4.20;2.30;;;;;;;-1.37;100.00;91266.75;5035041;28;20045;-60
2023/01/17 03:22:24;;;;;;;4.03;2.30;;;;;;;-1.39;100.00;91269.09;5052713;28;20056;-60
2023/01/17 03:24:51;;;;;;;5.33;2.50;;;;;;;-1.48;100.00;91261.53;5052888;28;20106;-60
2023/01/17 03:27:17;;;;;;;4.43;2.10;;;;;;;-1.54;100.00;91268.53;5034682;28;20102;-60
2023/01/17 03:29:44;;;;;;;4.55;2.53;;;;;;;-1.53;100.00;91265.44;5052572;28;20201;-60
2023/01/17 03:32:11;;;;;;;4.93;2.38;;;;;;;-1.53;100.00;91268.13;5050735;28;20064;-61
2023/01/17 03:34:37;;;;;;;3.65;2.10;;;;;;;-1.62;100.00;91263.25;5052480;28;20041;-60
2023/01/17 03:37:04;;;;;;;3.73;1.70;;;;;;;-1.49;100.00;91262.69;5052779;28;20417;-60
2023/01/17 03:39:31;;;;;;;4.32;1.70;;;;;;;-1.51;100.00;91255.06;5051796;28;20086;-60
2023/01/17 03:41:57;;;;;;;3.10;1.50;;;;;;;-1.54;100.00;91258.53;5052230;28;20409;-61
2023/01/17 03:44:24;;;;;;;3.17;1.55;;;;;;;-1.59;100.00;91261.66;5051693;28;20460;-60
2023/01/17 03:46:51;;;;;;;2.97;1.55;;;;;;;-1.53;100.00;91259.28;5052450;28;20431;-60
2023/01/17 03:49:17;;;;;;;3.77;1.50;;;;;;;-1.49;100.00;91262.69;5052028;28;20057;-60
2023/01/17 03:51:44;;;;;;;2.78;1.40;;;;;;;-1.57;100.00;91258.56;5052598;28;20037;-60
2023/01/17 03:54:11;;;;;;;2.92;1.40;;;;;;;-1.47;100.00;91271.13;5052623;28;20048;-60
2023/01/17 03:56:38;;;;;;;3.55;1.50;;;;;;;-1.47;100.00;91269.22;5051511;28;20425;-60
2023/01/17 03:59:04;;;;;;;5.30;2.47;;;;;;;-1.56;100.00;91270.88;5052294;28;20037;-60
2023/01/17 04:01:31;;;;;;;6.63;2.40;;;;;;;-1.50;100.00;91272.69;5051494;28;20049;-60
2023/01/17 04:03:58;;;;;;;6.43;2.10;;;;;;;-1.49;100.00;91271.53;5052372;28;20546;-60
2023/01/17 04:06:24;;;;;;;4.72;1.98;;;;;;;-1.64;100.00;91265.56;5051622;28;20523;-60
2023/01/17 04:08:51;;;;;;;4.53;1.70;;;;;;;-1.61;100.00;91264.00;5052191;28;20452;-60
2023/01/17 04:11:18;;;;;;;5.13;1.98;;;;;;;-1.61;100.00;91262.09;5051702;28;20409;-60
2023/01/17 04:13:45;;;;;;;5.30;2.20;;;;;;;-1.57;100.00;91255.88;5052141;28;20043;-60
2023/01/17 04:16:16;;;;;;;6.53;2.00;;;;;;;-1.55;100.00;91256.25;5051535;28;20067;-60
2023/01/17 04:18:43;;;;;;;4.53;2.10;;;;;;;-1.41;100.00;91245.28;5051123;28;20045;-60
2023/01/17 04:21:10;;;;;;;5.05;2.20;;;;;;;-1.45;100.00;91248.06;5051736;28;20041;-60
2023/01/17 04:23:37;;;;;;;3.58;2.00;;;;;;;-1.44;100.00;91244.19;5051264;28;20047;-60
2023/01/17 04:26:04;;;;;;;4.63;1.97;;;;;;;-1.40;100.00;91249.50;5051681;28;20528;-60
2023/01/17 04:28:30;;;;;;;4.88;2.00;;;;;;;-1.38;100.00;91241.03;5051033;28;20053;-60
2023/01/17 04:30:59;;;;;;;4.50;2.20;;;;;;;-1.52;100.00;91236.63;5051460;28;20048;-60
2023/01/17 04:33:25;;;;;;;3.63;1.67;;;;;;;-1.59;100.00;91245.53;5051115;28;20110;-61
2023/01/17 04:35:53;;;;;;;4.43;1.60;;;;;;;-1.58;100.00;91247.06;5051547;28;20046;-60
2023/01/17 04:38:22;;;;;;;3.30;1.47;;;;;;;-1.55;100.00;91248.97;5051010;28;20405;-60
2023/01/17 04:40:50;;;;;;;3.65;1.50;;;;;;;-1.52;100.00;91245.44;5051284;28;20048;-60
2023/01/17 04:43:16;;;;;;;7.15;1.70;;;;;;;-1.38;100.00;91241.03;5050996;28;20041;-60
2023/01/17 04:45:43;;;;;;;4.38;1.77;;;;;;;-1.53;100.00;91243.94;5051428;28;20037;-60
2023/01/17 04:48:11;;;;;;;5.10;1.60;;;;;;;-1.73;100.00;91246.50;5051216;28;20049;-60
2023/01/17 04:50:38;;;;;;;4.90;1.80;;;;;;;-1.69;100.00;91249.13;5050374;28;20040;-60
2023/01/17 04:53:05;;;;;;;5.70;2.50;;;;;;;-1.74;100.00;91244.22;5050660;28;20037;-60
2023/01/17 04:55:32;;;;;;;7.35;2.10;;;;;;;-1.76;100.00;91230.41;5050022;28;20041;-60
2023/01/17 04:57:58;;;;;;;11.00;3.80;;;;;;;-1.71;100.00;91228.03;5050877;28;20094;-60
2023/01/17 05:00:25;;;;;;;11.10;4.93;;;;;;;-1.81;100.00;91227.00;5050373;28;20043;-60
2023/01/17 05:02:52;;;;;;;15.10;5.73;;;;;;;-1.88;100.00;91215.56;5051316;28;20063;-60
2023/01/17 05:05:18;;;;;;;11.25;4.75;;;;;;;-1.98;100.00;91214.53;5050253;28;20049;-60
2023/01/17 05:07:55;;;;;;;8.88;3.80;;;;;;;-2.08;100.00;91210.06;5050990;28;20443;-60
2023/01/17 05:10:22;;;;;;;11.65;4.30;;;;;;;-2.21;100.00;91210.59;5050355;28;20056;-60
2023/01/17 05:12:56;;;;;;;13.95;5.35;;;;;;;-2.35;100.00;91207.31;5050797;28;20044;-60
2023/01/17 05:15:25;;;;;;;6.53;2.30;;;;;;;-2.46;100.00;91196.69;5032344;28;20110;-60
2023/01/17 05:17:52;;;;;;;13.60;4.60;;;;;;;-2.59;100.00;91193.00;5050501;28;20037;-60
2023/01/17 05:20:21;;;;;;;11.90;5.53;;;;;;;-2.71;100.00;91202.31;5050055;28;20064;-60
2023/01/17 05:22:55;;;;;;;12.75;6.30;;;;;;;-2.80;100.00;91205.44;5050654;28;20041;-60
2023/01/17 05:25:26;;;;;;;10.38;4.13;;;;;;;-2.94;100.00;91203.66;5050150;28;20043;-60
2023/01/17 05:27:53;;;;;;;16.40;7.63;;;;;;;-2.98;100.00;91207.53;5050835;28;20445;-60
2023/01/17 05:30:21;;;;;;;5.68;2.80;;;;;;;-3.06;100.00;91214.88;5050133;28;20047;-60
2023/01/17 05:32:49;;;;;;;9.80;2.72;;;;;;;-3.03;100.00;91225.59;5050702;28;20068;-60
2023/01/17 05:35:25;;;;;;;12.55;4.03;;;;;;;-3.05;100.00;91213.75;5049712;28;20053;-59
2023/01/17 05:37:52;;;;;;;7.53;3.03;;;;;;;-3.03;100.00;91214.09;5050240;28;20563;-60
2023/01/17 05:40:25;;;;;;;7.50;3.03;;;;;;;-3.10;100.00;91208.78;5049882;28;20041;-60
2023/01/17 05:42:53;;;;;;;7.65;2.83;;;;;;;-3.31;100.00;91207.81;5050152;28;20505;-60
2023/01/17 05:45:22;;;;;;;6.05;2.40;;;;;;;-3.37;100.00;91203.28;5049418;28;20049;-60
2023/01/17 05:47:50;;;;;;;5.20;2.17;;;;;;;-3.49;100.00;91204.50;5050318;28;20411;-60
2023/01/17 05:50:19;;;;;;;3.97;1.83;;;;;;;-3.53;100.00;91201.84;5049867;28;20040;-59
2023/01/17 05:52:51;;;;;;;4.70;1.97;;;;;;;-3.49;100.00;91201.81;5050186;28;20045;-60
2023/01/17 05:55:19;;;;;;;5.20;1.90;;;;;;;-3.52;100.00;91198.00;5048462;28;20047;-60
2023/01/17 05:57:45;;;;;;;4.75;2.20;;;;;;;-3.66;100.00;91193.50;5050024;28;20051;-60
2023/01/17 06:00:13;;;;;;;6.60;2.30;;;;;;;-3.82;100.00;91190.56;5048843;28;20067;-60
2023/01/17 06:02:40;;;;;;;4.25;2.30;;;;;;;-3.88;100.00;91176.06;5049343;28;20047;-60
2023/01/17 06:05:07;;;;;;;3.97;1.87;;;;;;;-3.96;100.00;91171.88;5049512;28;20045;-60
2023/01/17 06:07:33;;;;;;;4.53;2.03;;;;;;;-3.88;100.00;91171.44;5049007;28;20417;-60
2023/01/17 06:10:00;;;;;;;6.65;2.60;;;;;;;-3.89;100.00;91166.47;5049736;28;20044;-60
2023/01/17 06:12:27;;;;;;;5.95;2.90;;;;;;;-3.86;100.00;91157.66;5049503;28;20409;-60
2023/01/17 06:14:53;;;;;;;5.05;2.28;;;;;;;-3.87;100.00;91164.16;5049649;28;20037;-60
2023/01/17 06:17:20;;;;;;;5.43;2.73;;;;;;;-3.96;100.00;91166.50;5049476;28;20067;-60
2023/01/17 06:19:47;;;;;;;8.48;3.83;;;;;;;-3.97;100.00;91173.78;5049651;28;20345;-60
2023/01/17 06:22:13;;;;;;;8.35;3.30;;;;;;;-4.05;100.00;91178.41;5050022;28;20041;-60
2023/01/17 06:24:40;;;;;;;10.05;3.60;;;;;;;-4.12;100.00;91180.41;5048992;28;20090;-60
2023/01/17 06:27:09;;;;;;;13.57;5.03;;;;;;;-4.10;100.00;91173.50;5049513;28;20393;-60
2023/01/17 06:29:36;;;;;;;11.20;4.57;;;;;;;-4.07;100.00;91172.69;5049300;28;20057;-60
2023/01/17 06:32:03;;;;;;;11.60;3.72;;;;;;;-4.10;100.00;91165.44;5049534;28;20391;-60
2023/01/17 06:34:30;;;;;;;10.73;4.10;;;;;;;-4.07;100.00;91172.69;5049222;28;20049;-60
2023/01/17 06:36:57;;;;;;;8.98;3.50;;;;;;;-4.00;100.00;91166.56;5049558;28;20506;-60
2023/01/17 06:39:24;;;;;;;8.57;3.38;;;;;;;-4.12;100.00;91164.31;5048966;28;20051;-60
2023/01/17 06:41:50;;;;;;;7.57;3.47;;;;;;;-4.27;100.00;91177.00;5049519;28;20041;-59
2023/01/17 06:44:17;;;;;;;8.23;3.38;;;;;;;-4.28;100.00;91183.53;5049153;28;20048;-59
2023/01/17 06:46:43;;;;;;;11.25;4.20;;;;;;;-4.29;100.00;91171.28;5049523;28;20049;-60
2023/01/17 06:49:10;;;;;;;7.95;3.15;;;;;;;-4.13;100.00;91168.91;5049826;28;20405;-60
2023/01/17 06:51:37;;;;;;;11.48;3.67;;;;;;;-4.08;100.00;91181.13;5048946;28;20037;-60
2023/01/17 06:54:04;;;;;;;16.27;4.53;;;;;;;-4.04;100.00;91173.84;5049160;28;20496;-60
2023/01/17 06:56:32;;;;;;;15.90;5.50;;;;;;;-3.99;100.00;91184.13;5048697;28;20066;-60
2023/01/17 06:58:58;;;;;;;13.77;5.20;;;;;;;-3.87;100.00;91175.63;5049361;28;20055;-60
2023/01/17 07:01:25;;;;;;;16.30;5.65;;;;;;;-3.80;100.00;91177.53;5047305;28;20041;-60
2023/01/17 07:03:52;;;;;;;11.40;5.07;;;;;;;-3.65;100.00;91186.22;5049557;28;20085;-61
2023/01/17 07:06:20;;;;;;;18.70;7.07;;;;;;;-3.66;100.00;91193.50;5049005;28;20462;-60
2023/01/17 07:08:47;;;;;;;18.42;7.63;;;;;;;-3.61;100.00;91179.69;5045788;28;20041;-61
2023/01/17 07:11:14;;;;;;;27.05;10.18;;;;;;;-3.55;100.00;91177.34;5041375;28;20053;-62
2023/01/17 07:13:41;;;;;;;23.95;8.85;;;;;;;-3.55;100.00;91179.28;5038497;28;21584;-61
2023/01/17 07:16:08;;;;;;;35.20;12.75;;;;;;;-3.48;100.00;91163.91;5039957;28;20347;-61
2023/01/17 07:18:34;;;;;;;39.67;12.77;;;;;;;-3.40;100.00;91153.88;5040929;28;20072;-61
2023/01/17 07:21:01;;;;;;;26.70;9.60;;;;;;;-3.42;100.00;91145.44;5052457;28;20477;-60
2023/01/17 07:23:28;;;;;;;19.85;7.25;;;;;;;-3.35;100.00;91142.72;5052218;28;20045;-60
2023/01/17 07:25:59;;;;;;;17.33;7.60;;;;;;;-3.40;100.00;91145.84;5048619;28;20409;-61
2023/01/17 07:28:27;;;;;;;16.58;7.47;;;;;;;-3.45;100.00;91148.94;5051903;28;20047;-61
2023/01/17 07:30:53;;;;;;;13.43;5.70;;;;;;;-3.35;100.00;91140.03;5052834;28;20037;-61
2023/01/17 07:33:20;;;;;;;16.08;6.63;;;;;;;-3.31;100.00;91130.03;5052136;28;20041;-61
2023/01/17 07:35:47;;;;;;;19.27;7.80;;;;;;;-3.48;100.00;91131.72;5052653;28;20047;-61
2023/01/17 07:38:18;;;;;;;15.43;6.10;;;;;;;-3.46;100.00;91132.09;5052501;28;20041;-61
2023/01/17 07:40:45;;;;;;;14.63;6.20;;;;;;;-3.15;100.00;91134.13;5051891;28;20108;-61
2023/01/17 07:43:12;;;;;;;14.33;5.17;;;;;;;-2.92;100.00;91141.56;5052245;28;20041;-61
2023/01/17 07:45:44;;;;;;;14.10;5.95;;;;;;;-2.87;100.00;91146.50;5051647;28;20045;-61
2023/01/17 07:48:11;;;;;;;14.98;6.07;;;;;;;-2.85;100.00;91144.19;5052127;28;20391;-61
2023/01/17 07:50:38;;;;;;;14.75;5.85;;;;;;;-2.70;100.00;91148.22;5051815;28;20052;-61
2023/01/17 07:53:05;;;;;;;14.25;6.13;;;;;;;-2.59;100.00;91152.72;5052132;28;20055;-61
2023/01/17 07:55:32;;;;;;;12.67;5.50;;;;;;;-2.65;100.00;91158.53;5051646;28;20094;-61
2023/01/17 07:57:58;;;;;;;16.40;6.70;;;;;;;-2.76;100.00;91157.88;5052650;28;20045;-61
2023/01/17 08:00:28;;;;;;;17.05;6.80;;;;;;;-2.86;100.00;91161.44;5051609;28;20379;-61
2023/01/17 08:03:00;;;;;;;14.32;5.78;;;;;;;-2.71;100.00;91151.31;5052236;28;20041;-61
2023/01/17 08:05:29;;;;;;;14.15;6.22;;;;;;;-2.73;100.00;91150.97;5038288;28;20041;-61
2023/01/17 08:07:56;;;;;;;12.40;5.63;;;;;;;-2.64;100.00;91154.66;5051003;28;20041;-61
2023/01/17 08:10:22;;;;;;;11.18;5.18;;;;;;;-2.57;100.00;91153.09;5050450;28;20406;-61
2023/01/17 08:12:49;;;;;;;11.90;5.70;;;;;;;-2.57;100.00;91139.66;5051874;28;20043;-61
2023/01/17 08:15:17;;;;;;;9.88;4.53;;;;;;;-2.37;100.00;91135.19;5051319;28;20043;-59
2023/01/17 08:17:48;;;;;;;9.60;4.22;;;;;;;-2.24;100.00;91132.72;5051492;28;20049;-61
2023/01/17 08:20:15;;;;;;;10.77;4.20;;;;;;;-2.25;100.00;91139.28;5051730;28;20045;-61
2023/01/17 08:22:42;;;;;;;10.45;4.25;;;;;;;-2.29;100.00;91130.50;5050506;28;20874;-61
2023/01/17 08:25:08;;;;;;;10.25;4.28;;;;;;;-2.67;100.00;91127.88;5051602;28;20094;-61
2023/01/17 08:27:35;;;;;;;10.82;4.05;;;;;;;-2.39;100.00;91110.66;5050561;28;20049;-61
2023/01/17 08:30:03;;;;;;;9.55;4.35;;;;;;;-2.16;100.00;91115.34;5051691;28;20041;-61
2023/01/17 08:32:30;;;;;;;10.70;4.43;;;;;;;-1.96;100.00;91102.03;5051193;28;20061;-61
2023/01/17 08:34:56;;;;;;;10.73;5.13;;;;;;;-1.81;100.00;91099.91;5051190;28;20106;-61
2023/01/17 08:37:23;;;;;;;9.90;4.78;;;;;;;-1.62;100.00;91099.22;5050968;28;20057;-61
2023/01/17 08:39:50;;;;;;;11.35;4.88;;;;;;;-1.47;100.00;91090.91;5050859;28;20048;-61
2023/01/17 08:42:17;;;;;;;14.93;6.30;;;;;;;-1.50;100.00;91097.88;5051013;28;20041;-60
2023/01/17 08:44:44;;;;;;;11.17;4.70;;;;;;;-1.57;100.00;91087.25;5051006;28;20041;-61
2023/01/17 08:47:10;;;;;;;11.10;4.63;;;;;;;-1.61;100.00;91089.22;5051419;28;20102;-61
2023/01/17 08:49:37;;;;;;;10.85;4.63;;;;;;;-1.80;100.00;91077.22;5050444;28;20495;-61
2023/01/17 08:52:04;;;;;;;14.23;6.20;;;;;;;-1.88;100.00;91078.50;5050957;28;20044;-61
2023/01/17 08:54:31;;;;;;;12.43;5.22;;;;;;;-1.54;100.00;91070.28;5050539;28;20052;-61
2023/01/17 08:56:58;;;;;;;13.50;5.50;;;;;;;-1.51;100.00;91063.31;5051287;28;20049;-61
2023/01/17 08:59:24;;;;;;;12.52;4.55;;;;;;;-1.12;100.00;91056.53;5050218;28;20070;-61
2023/01/17 09:01:53;;;;;;;10.15;4.70;;;;;;;-1.22;100.00;91063.59;5050627;28;20041;-61
2023/01/17 09:04:19;;;;;;;10.27;4.90;;;;;;;-0.92;100.00;91059.97;5050599;28;20048;-61
2023/01/17 09:06:47;;;;;;;16.65;5.20;;;;;;;-1.48;100.00;91057.88;5051116;28;20041;-61
2023/01/17 09:09:15;;;;;;;10.60;4.80;;;;;;;-1.09;100.00;91059.13;5050386;28;20282;-61
2023/01/17 09:11:42;;;;;;;10.50;4.95;;;;;;;-1.37;100.00;91051.56;5049762;28;21575;-61
2023/01/17 09:14:11;;;;;;;11.63;5.57;;;;;;;-1.20;100.00;91053.19;5051019;28;20090;-59
2023/01/17 09:16:38;;;;;;;11.30;4.88;;;;;;;-1.12;100.00;91056.53;5050228;28;20037;-59
2023/01/17 09:19:05;;;;;;;10.93;4.88;;;;;;;-1.03;100.00;91059.41;5050513;28;20037;-60
2023/01/17 09:21:31;;;;;;;15.97;6.47;;;;;;;-0.99;100.00;91043.94;5032476;28;20045;-60
2023/01/17 09:23:58;;;;;;;11.77;5.53;;;;;;;-0.73;100.00;91030.78;5050180;28;20436;-60
2023/01/17 09:26:28;;;;;;;10.73;4.80;;;;;;;-0.83;100.00;91030.56;5049440;28;20448;-60
2023/01/17 09:28:55;;;;;;;12.48;5.68;;;;;;;-0.69;100.00;91024.13;5050656;28;20044;-60
2023/01/17 09:31:22;;;;;;;14.00;6.40;;;;;;;-0.41;100.00;91012.00;5049943;28;20052;-60
2023/01/17 09:33:50;;;;;;;9.87;4.13;;;;;;;-0.26;100.00;91006.34;5050588;28;20437;-60
2023/01/17 09:36:17;;;;;;;12.65;5.18;;;;;;;0.10;100.00;91014.38;5049501;28;20137;-60
2023/01/17 09:38:44;;;;;;;10.80;4.35;;;;;;;-0.39;100.00;91008.16;5049310;28;20094;-60
2023/01/17 09:41:26;;;;;;;8.57;3.55;;;;;;;-0.55;100.00;91022.34;5050169;28;20094;-60
2023/01/17 09:44:01;;;;;;;8.93;3.83;;;;;;;-0.23;100.00;91027.03;5049098;28;20971;-60
2023/01/17 09:46:32;;;;;;;9.50;3.50;;;;;;;0.39;100.00;91027.94;5049606;28;20044;-60
2023/01/17 09:49:12;;;;;;;7.53;3.42;;;;;;;0.56;100.00;91030.63;5050565;28;20099;-60
2023/01/17 09:51:40;;;;;;;7.38;3.13;;;;;;;0.84;100.00;91028.38;5049786;28;20043;-61
2023/01/17 09:54:34;;;;;;;6.75;2.88;;;;;;;1.87;100.00;91029.44;5050239;28;20045;-61
2023/01/17 09:57:15;;;;;;;8.52;3.13;;;;;;;1.92;99.50;91026.94;5049275;28;20047;-61
2023/01/17 09:59:56;;;;;;;6.70;2.87;;;;;;;1.87;99.07;91024.03;5049094;28;20078;-61
2023/01/17 10:02:51;;;;;;;7.53;3.03;;;;;;;1.97;99.45;91023.72;5049226;28;20045;-60
2023/01/17 10:06:02;;;;;;;5.55;2.60;;;;;;;2.22;97.43;91027.63;5049569;28;20044;-60
2023/01/17 10:08:35;;;;;;;7.35;3.28;;;;;;;1.39;100.00;91023.84;4949014;28;20048;-60
2023/01/17 10:11:12;;;;;;;13.48;3.92;;;;;;;1.58;98.67;91031.00;4949785;28;20105;-60
2023/01/17 10:14:13;;;;;;;8.23;3.40;;;;;;;1.72;100.00;91024.44;5004214;28;20052;-60
2023/01/17 10:17:19;;;;;;;7.40;3.70;;;;;;;1.90;99.35;91012.34;5049133;28;20045;-60
2023/01/17 10:19:54;;;;;;;5.47;2.63;;;;;;;2.01;96.43;91007.38;5048801;28;20053;-60
2023/01/17 10:22:32;;;;;;;7.82;3.80;;;;;;;2.04;98.12;91011.19;5049524;28;20052;-60
2023/01/17 10:25:17;;;;;;;6.25;2.90;;;;;;;1.46;98.19;91006.66;5049916;28;20052;-61
2023/01/17 10:28:16;;;;;;;5.57;2.77;;;;;;;1.66;98.80;91006.50;5048748;28;20905;-60
2023/01/17 10:30:51;;;;;;;5.30;2.50;;;;;;;1.50;98.74;90999.97;5047983;28;20377;-60
2023/01/17 10:33:23;;;;;;;6.40;2.95;;;;;;;0.52;100.00;90997.56;5048843;28;20033;-59
2023/01/17 10:36:05;;;;;;;5.13;2.55;;;;;;;1.00;100.00;90998.66;5049925;28;20041;-60
2023/01/17 10:38:37;;;;;;;6.43;2.80;;;;;;;1.15;100.00;90988.97;5049081;28;20037;-60
2023/01/17 10:41:14;;;;;;;7.73;2.90;;;;;;;1.13;100.00;90979.81;5049517;28;20037;-60
2023/01/17 10:44:19;;;;;;;7.10;3.47;;;;;;;1.33;100.00;90974.97;5036301;28;20045;-60
2023/01/17 10:46:55;;;;;;;7.10;2.97;;;;;;;1.79;100.00;90969.41;5048462;28;20747;-60
2023/01/17 10:49:24;;;;;;;5.88;2.83;;;;;;;1.88;98.22;90964.09;5049149;28;20105;-59
2023/01/17 10:52:17;;;;;;;6.30;2.92;;;;;;;1.68;99.46;90958.16;5036749;28;20053;-60
2023/01/17 10:55:17;;;;;;;6.27;2.73;;;;;;;1.75;98.94;90952.53;5051375;28;20872;-61
2023/01/17 10:57:47;;;;;;;7.53;3.10;;;;;;;1.32;100.00;90951.84;5052682;28;20224;-60
2023/01/17 11:00:20;;;;;;;7.90;3.33;;;;;;;0.86;100.00;90958.53;5052904;28;20048;-61
2023/01/17 11:02:49;;;;;;;6.78;2.60;;;;;;;0.80;100.00;90947.50;5052276;28;20308;-61
2023/01/17 11:05:24;;;;;;;9.18;3.10;;;;;;;0.19;100.00;90938.28;5053473;28;20037;-60
2023/01/17 11:08:05;;;;;;;6.13;2.73;;;;;;;0.00;100.00;90929.13;5052311;28;20041;-61
2023/01/17 11:10:45;;;;;;;7.50;3.10;;;;;;;0.06;100.00;90916.63;5052843;28;20045;-60
2023/01/17 11:13:26;;;;;;;8.43;3.83;;;;;;;0.77;100.00;90905.19;5053378;28;20386;-60
2023/01/17 11:15:57;;;;;;;8.35;3.08;;;;;;;1.15;100.00;90907.22;5052415;28;20156;-60
2023/01/17 11:18:28;;;;;;;5.97;2.72;;;;;;;1.44;100.00;90909.06;5052506;28;20059;-60
2023/01/17 11:21:17;;;;;;;5.87;2.80;;;;;;;1.60;100.00;90901.59;5053086;28;20040;-61
2023/01/17 11:23:47;;;;;;;8.40;2.67;;;;;;;1.47;100.00;90886.56;5052168;28;20837;-60
2023/01/17 11:26:26;;;;;;;8.05;3.00;;;;;;;1.51;100.00;90881.81;5052090;28;20041;-60
2023/01/17 11:29:12;;;;;;;7.18;3.20;;;;;;;1.68;98.94;90877.06;5051327;28;20059;-60
2023/01/17 11:31:39;;;;;;;8.85;3.22;;;;;;;1.77;99.09;90866.34;5052041;28;20048;-61
2023/01/17 11:34:23;;;;;;;8.70;3.90;;;;;;;1.58;96.60;90868.09;5052681;28;20493;-61
2023/01/17 11:37:29;;;;;;;6.43;2.90;;;;;;;1.13;99.59;90867.13;5051468;28;20049;-61
2023/01/17 11:40:36;;;;;;;6.47;3.30;;;;;;;1.39;96.22;90865.19;5009405;28;20078;-60
2023/01/17 11:43:13;;;;;;;5.18;2.10;;;;;;;1.24;94.71;90857.94;4993745;28;20049;-61
2023/01/17 11:45:40;;;;;;;5.00;2.53;;;;;;;1.10;95.02;90859.88;5043835;28;20047;-60
2023/01/17 11:48:07;;;;;;;9.10;2.93;;;;;;;1.80;92.64;90858.13;5052421;28;20492;-59
2023/01/17 11:50:54;;;;;;;6.57;2.17;;;;;;;0.93;94.06;90856.50;5051518;28;20554;-60
2023/01/17 11:53:29;;;;;;;5.00;2.20;;;;;;;1.96;89.38;90861.88;5051878;28;20057;-59
2023/01/17 11:56:04;;;;;;;5.15;1.92;;;;;;;2.08;87.18;90854.94;5052078;28;20045;-59
2023/01/17 11:58:33;;;;;;;4.38;2.30;;;;;;;1.89;85.96;90843.94;5051791;28;20114;-59
2023/01/17 12:01:05;;;;;;;3.67;1.70;;;;;;;2.03;85.93;90841.94;5052186;28;20097;-59
2023/01/17 12:03:51;;;;;;;5.18;2.20;;;;;;;2.07;88.93;90840.63;5051775;28;20649;-59
2023/01/17 12:06:45;;;;;;;5.35;2.50;;;;;;;1.92;86.26;90845.78;5036562;28;20110;-59
2023/01/17 12:09:28;;;;;;;8.10;3.20;;;;;;;1.80;88.20;90843.84;5051418;28;20501;-59
2023/01/17 12:15:32;;;;;;;17.77;6.33;;;;;;;1.68;88.05;90825.72;5050962;28;20052;-59
2023/01/17 12:18:31;;;;;;;9.60;3.10;;;;;;;1.51;88.11;90828.53;5051149;28;21849;-59
2023/01/17 12:21:09;;;;;;;4.47;1.98;;;;;;;0.97;88.04;90834.81;5051245;28;20753;-59
2023/01/17 12:23:45;;;;;;;13.23;4.53;;;;;;;1.32;87.95;90846.47;5037470;28;20048;-59
2023/01/17 12:26:25;;;;;;;3.90;1.80;;;;;;;0.71;89.31;90834.00;5051486;28;20067;-59
2023/01/17 12:29:30;;;;;;;3.50;1.30;;;;;;;0.77;89.13;90835.00;5050828;28;21755;-59
2023/01/17 12:32:02;;;;;;;3.13;1.60;;;;;;;1.28;88.75;90828.88;5029380;28;20731;-59
2023/01/17 12:35:03;;;;;;;3.83;2.08;;;;;;;1.42;87.87;90825.72;5051069;28;20052;-59
2023/01/17 12:37:39;;;;;;;3.80;1.60;;;;;;;0.69;91.92;90823.63;5033941;28;20068;-59
2023/01/17 12:40:21;;;;;;;4.45;1.90;;;;;;;0.81;90.21;90810.59;5050686;28;20045;-59
2023/01/17 12:43:20;;;;;;;4.67;1.60;;;;;;;0.83;90.37;90800.13;5050473;28;22568;-59
2023/01/17 12:45:48;;;;;;;3.00;1.30;;;;;;;0.31;89.74;90799.28;5042980;28;20063;-59
2023/01/17 12:48:17;;;;;;;3.40;1.30;;;;;;;-0.07;91.86;90795.25;5051523;28;20478;-59
2023/01/17 12:51:00;;;;;;;3.80;1.85;;;;;;;0.43;91.98;90800.50;5050204;28;20378;-59
2023/01/17 12:53:48;;;;;;;5.22;2.20;;;;;;;0.54;91.14;90782.81;5050372;28;20082;-60
2023/01/17 12:56:23;;;;;;;7.10;2.10;;;;;;;0.81;92.43;90778.97;5051202;28;20086;-60
2023/01/17 12:58:59;;;;;;;11.43;3.38;;;;;;;0.68;90.04;90768.13;5050675;28;20056;-60
2023/01/17 13:01:38;;;;;;;5.85;2.78;;;;;;;1.14;90.56;90768.69;5050729;28;20389;-60
2023/01/17 13:04:05;;;;;;;4.72;1.80;;;;;;;0.37;92.61;90771.34;5051282;28;20037;-60
2023/01/17 13:06:43;;;;;;;5.28;1.60;;;;;;;0.44;90.48;90775.00;5050605;28;20051;-59
2023/01/17 13:09:16;;;;;;;6.30;2.00;;;;;;;0.71;88.26;90771.94;5050910;28;20486;-59
2023/01/17 13:11:50;;;;;;;4.50;1.25;;;;;;;0.09;91.10;90778.28;5050087;28;21667;-60
2023/01/17 13:14:17;;;;;;;5.50;1.50;;;;;;;0.52;89.06;90760.88;5050346;28;20056;-58
2023/01/17 13:16:56;;;;;;;5.00;1.40;;;;;;;0.58;90.36;90761.13;5050452;28;20045;-61